sensor_id;sensor_type;location;lat;lon;timestamp;pressure;altitude;pressure_sealevel;temperature;humidity
16100;BME280;8154;50.830;12.082;2023-02-16T00:54:57;100281.50;;;22.96;36.02
16100;BME280;8154;50.830;12.082;2023-02-16T00:57:24;100279.66;;;22.97;35.98
16100;BME280;8154;50.830;12.082;2023-02-16T00:59:59;100278.13;;;23.02;35.82
16100;BME280;8154;50.830;12.082;2023-02-16T01:02:27;100266.16;;;22.98;35.63
16100;BME280;8154;50.830;12.082;2023-02-16T01:04:54;100274.94;;;23.07;35.63
16100;BME280;8154;50.830;12.082;2023-02-16T01:07:23;100282.94;;;23.07;35.51
16100;BME280;8154;50.830;12.082;2023-02-16T01:10:10;100273.16;;;22.99;35.65
16100;BME280;8154;50.830;12.082;2023-02-16T01:12:59;100282.31;;;23.05;35.60
16100;BME280;8154;50.830;12.082;2023-02-16T01:15:29;100280.94;;;23.09;35.37
16100;BME280;8154;50.830;12.082;2023-02-16T01:17:57;100283.25;;;23.12;35.42
16100;BME280;8154;50.830;12.082;2023-02-16T01:20:33;100279.63;;;23.13;35.23
16100;BME280;8154;50.830;12.082;2023-02-16T01:23:03;100278.28;;;23.09;35.21
16100;BME280;8154;50.830;12.082;2023-02-16T01:25:30;100284.81;;;23.06;35.47
16100;BME280;8154;50.830;12.082;2023-02-16T01:28:00;100282.78;;;23.08;35.07
16100;BME280;8154;50.830;12.082;2023-02-16T01:30:32;100274.44;;;23.11;35.44
16100;BME280;8154;50.830;12.082;2023-02-16T01:33:04;100270.59;;;23.14;35.07
16100;BME280;8154;50.830;12.082;2023-02-16T01:35:32;100280.91;;;23.17;35.22
16100;BME280;8154;50.830;12.082;2023-02-16T01:38:00;100279.44;;;23.14;35.24
16100;BME280;8154;50.830;12.082;2023-02-16T01:40:41;100282.59;;;23.10;35.14
16100;BME280;8154;50.830;12.082;2023-02-16T01:43:28;100283.94;;;23.14;35.13
16100;BME280;8154;50.830;12.082;2023-02-16T01:46:04;100273.09;;;23.15;35.09
16100;BME280;8154;50.830;12.082;2023-02-16T01:48:35;100278.44;;;23.15;34.95
16100;BME280;8154;50.830;12.082;2023-02-16T01:51:23;100272.59;;;23.12;34.98
16100;BME280;8154;50.830;12.082;2023-02-16T01:54:21;100273.09;;;23.15;34.84
16100;BME280;8154;50.830;12.082;2023-02-16T01:57:02;100273.59;;;23.19;34.97
16100;BME280;8154;50.830;12.082;2023-02-16T02:02:31;100273.22;;;23.22;34.68
16100;BME280;8154;50.830;12.082;2023-02-16T02:11:22;100263.06;;;23.25;34.72
16100;BME280;8154;50.830;12.082;2023-02-16T02:13:59;100266.22;;;23.21;34.58
16100;BME280;8154;50.830;12.082;2023-02-16T02:16:33;100263.25;;;23.16;34.72
16100;BME280;8154;50.830;12.082;2023-02-16T02:19:04;100274.22;;;23.21;34.74
16100;BME280;8154;50.830;12.082;2023-02-16T02:28:08;100261.91;;;23.28;34.48
16100;BME280;8154;50.830;12.082;2023-02-16T02:31:03;100265.56;;;23.27;34.24
16100;BME280;8154;50.830;12.082;2023-02-16T02:39:02;100254.38;;;23.23;34.23
16100;BME280;8154;50.830;12.082;2023-02-16T02:41:52;100268.03;;;23.28;34.37
16100;BME280;8154;50.830;12.082;2023-02-16T02:44:52;100259.91;;;23.30;34.14
16100;BME280;8154;50.830;12.082;2023-02-16T02:47:41;100261.91;;;23.28;34.07
16100;BME280;8154;50.830;12.082;2023-02-16T03:53:44;100258.84;;;23.39;33.72
16100;BME280;8154;50.830;12.082;2023-02-16T03:56:10;100265.66;;;23.41;33.47
16100;BME280;8154;50.830;12.082;2023-02-16T03:58:37;100269.03;;;23.35;33.66
16100;BME280;8154;50.830;12.082;2023-02-16T04:01:03;100265.88;;;23.32;33.50
16100;BME280;8154;50.830;12.082;2023-02-16T04:03:30;100269.19;;;23.34;33.71
16100;BME280;8154;50.830;12.082;2023-02-16T04:05:56;100258.19;;;23.37;33.42
16100;BME280;8154;50.830;12.082;2023-02-16T04:08:22;100258.84;;;23.39;33.38
16100;BME280;8154;50.830;12.082;2023-02-16T04:10:49;100261.31;;;23.40;33.27
16100;BME280;8154;50.830;12.082;2023-02-16T04:13:15;100262.50;;;23.38;33.33
16100;BME280;8154;50.830;12.082;2023-02-16T04:15:41;100271.03;;;23.33;33.59
16100;BME280;8154;50.830;12.082;2023-02-16T04:18:08;100270.84;;;23.35;33.37
16100;BME280;8154;50.830;12.082;2023-02-16T04:20:34;100274.19;;;23.37;33.36
16100;BME280;8154;50.830;12.082;2023-02-16T04:23:01;100269.88;;;23.36;33.47
16100;BME280;8154;50.830;12.082;2023-02-16T04:25:28;100270.38;;;23.31;33.33
16100;BME280;8154;50.830;12.082;2023-02-16T04:27:54;100268.53;;;23.32;33.55
16100;BME280;8154;50.830;12.082;2023-02-16T04:30:22;100267.66;;;23.39;33.15
16100;BME280;8154;50.830;12.082;2023-02-16T04:32:49;100278.97;;;23.41;33.25
16100;BME280;8154;50.830;12.082;2023-02-16T04:35:16;100287.66;;;23.43;33.13
16100;BME280;8154;50.830;12.082;2023-02-16T04:37:43;100283.97;;;23.44;33.09
16100;BME280;8154;50.830;12.082;2023-02-16T04:40:10;100279.47;;;23.45;33.30
16100;BME280;8154;50.830;12.082;2023-02-16T04:42:41;100275.13;;;23.44;33.09
16100;BME280;8154;50.830;12.082;2023-02-16T04:45:09;100273.13;;;23.46;33.05
16100;BME280;8154;50.830;12.082;2023-02-16T04:47:35;100269.16;;;23.42;32.94
16100;BME280;8154;50.830;12.082;2023-02-16T04:50:01;100262.66;;;23.36;33.12
16100;BME280;8154;50.830;12.082;2023-02-16T04:52:27;100261.03;;;23.35;33.19
16100;BME280;8154;50.830;12.082;2023-02-16T05:54:04;100265.47;;;23.43;33.04
16100;BME280;8154;50.830;12.082;2023-02-16T05:56:32;100250.75;;;23.47;32.76
16100;BME280;8154;50.830;12.082;2023-02-16T05:58:59;100261.09;;;23.50;32.88
16100;BME280;8154;50.830;12.082;2023-02-16T06:01:27;100251.06;;;23.52;33.00
16100;BME280;8154;50.830;12.082;2023-02-16T06:03:53;100254.41;;;23.54;32.83
16100;BME280;8154;50.830;12.082;2023-02-16T06:06:19;100249.91;;;23.54;32.65
16100;BME280;8154;50.830;12.082;2023-02-16T06:08:46;100248.03;;;23.55;32.79
16100;BME280;8154;50.830;12.082;2023-02-16T06:11:12;100247.25;;;23.54;32.68
16100;BME280;8154;50.830;12.082;2023-02-16T06:13:58;100248.03;;;23.55;32.85
16100;BME280;8154;50.830;12.082;2023-02-16T06:16:25;100247.25;;;23.54;32.77
16100;BME280;8154;50.830;12.082;2023-02-16T06:18:52;100253.75;;;23.52;32.87
16100;BME280;8154;50.830;12.082;2023-02-16T06:21:19;100252.44;;;23.48;32.69
16100;BME280;8154;50.830;12.082;2023-02-16T06:23:45;100247.41;;;23.53;32.71
16100;BME280;8154;50.830;12.082;2023-02-16T06:26:11;100255.06;;;23.56;32.64
16100;BME280;8154;50.830;12.082;2023-02-16T06:28:38;100252.22;;;23.57;32.67
16100;BME280;8154;50.830;12.082;2023-02-16T06:31:05;100256.34;;;23.60;32.88
16100;BME280;8154;50.830;12.082;2023-02-16T06:33:31;100248.34;;;23.60;32.62
16100;BME280;8154;50.830;12.082;2023-02-16T06:35:59;100248.34;;;23.60;32.78
16100;BME280;8154;50.830;12.082;2023-02-16T06:38:25;100250.00;;;23.61;32.53
16100;BME280;8154;50.830;12.082;2023-02-16T06:40:52;100246.53;;;23.60;32.77
16100;BME280;8154;50.830;12.082;2023-02-16T06:43:20;100249.81;;;23.62;32.46
16100;BME280;8154;50.830;12.082;2023-02-16T06:45:47;100246.16;;;23.63;32.66
16100;BME280;8154;50.830;12.082;2023-02-16T06:48:14;100257.47;;;23.65;32.48
16100;BME280;8154;50.830;12.082;2023-02-16T06:50:41;100246.66;;;23.67;32.68
16100;BME280;8154;50.830;12.082;2023-02-16T06:53:09;100247.47;;;23.67;32.70
16100;BME280;8154;50.830;12.082;2023-02-16T07:54:16;100253.41;;;23.77;32.39
16100;BME280;8154;50.830;12.082;2023-02-16T07:56:43;100260.03;;;23.81;32.45
16100;BME280;8154;50.830;12.082;2023-02-16T07:59:10;100258.03;;;23.83;32.29
16100;BME280;8154;50.830;12.082;2023-02-16T08:01:36;100255.84;;;23.87;32.27
16100;BME280;8154;50.830;12.082;2023-02-16T08:04:03;100261.19;;;23.87;32.06
16100;BME280;8154;50.830;12.082;2023-02-16T08:06:29;100254.81;;;23.88;32.14
16100;BME280;8154;50.830;12.082;2023-02-16T08:08:56;100258.34;;;23.88;32.32
16100;BME280;8154;50.830;12.082;2023-02-16T08:11:24;100256.47;;;23.89;32.35
16100;BME280;8154;50.830;12.082;2023-02-16T08:13:52;100255.50;;;23.90;32.35
16100;BME280;8154;50.830;12.082;2023-02-16T08:16:23;100257.13;;;23.91;32.07
16100;BME280;8154;50.830;12.082;2023-02-16T08:18:51;100261.63;;;23.90;32.14
16100;BME280;8154;50.830;12.082;2023-02-16T08:21:20;100256.78;;;23.94;31.94
16100;BME280;8154;50.830;12.082;2023-02-16T08:23:52;100251.63;;;23.92;32.08
16100;BME280;8154;50.830;12.082;2023-02-16T08:26:21;100258.97;;;23.90;32.10
16100;BME280;8154;50.830;12.082;2023-02-16T08:28:48;100262.13;;;23.94;32.33
16100;BME280;8154;50.830;12.082;2023-02-16T08:31:19;100252.13;;;23.96;32.26
16100;BME280;8154;50.830;12.082;2023-02-16T08:33:47;100252.94;;;23.96;32.23
16100;BME280;8154;50.830;12.082;2023-02-16T08:36:25;100245.91;;;23.95;32.22
16100;BME280;8154;50.830;12.082;2023-02-16T08:38:55;100246.59;;;23.97;32.04
16100;BME280;8154;50.830;12.082;2023-02-16T08:41:23;100241.09;;;23.99;32.21
16100;BME280;8154;50.830;12.082;2023-02-16T08:43:50;100235.22;;;23.95;32.07
16100;BME280;8154;50.830;12.082;2023-02-16T08:46:17;100234.91;;;23.98;32.06
16100;BME280;8154;50.830;12.082;2023-02-16T08:48:44;100237.88;;;24.03;32.26
16100;BME280;8154;50.830;12.082;2023-02-16T08:51:17;100236.50;;;24.07;31.86
16100;BME280;8154;50.830;12.082;2023-02-16T08:53:44;100234.28;;;24.11;32.16
16100;BME280;8154;50.830;12.082;2023-02-16T08:56:13;100241.59;;;24.17;31.96
16100;BME280;8154;50.830;12.082;2023-02-16T08:58:40;100250.88;;;24.21;31.90
16100;BME280;8154;50.830;12.082;2023-02-16T09:01:09;100250.06;;;24.20;32.16
16100;BME280;8154;50.830;12.082;2023-02-16T09:03:39;100263.34;;;24.28;31.83
16100;BME280;8154;50.830;12.082;2023-02-16T09:06:11;100263.00;;;24.32;31.94
16100;BME280;8154;50.830;12.082;2023-02-16T09:08:38;100265.31;;;24.35;32.04
16100;BME280;8154;50.830;12.082;2023-02-16T09:11:08;100264.09;;;24.37;31.67
16100;BME280;8154;50.830;12.082;2023-02-16T09:13:35;100257.56;;;24.40;31.91
16100;BME280;8154;50.830;12.082;2023-02-16T09:16:04;100255.34;;;24.43;31.99
16100;BME280;8154;50.830;12.082;2023-02-16T09:18:30;100249.63;;;24.46;31.94
16100;BME280;8154;50.830;12.082;2023-02-16T09:21:03;100256.28;;;24.50;31.74
16100;BME280;8154;50.830;12.082;2023-02-16T09:23:34;100259.59;;;24.52;31.95
16100;BME280;8154;50.830;12.082;2023-02-16T09:26:01;100256.72;;;24.54;31.92
16100;BME280;8154;50.830;12.082;2023-02-16T09:28:28;100256.56;;;24.55;31.97
16100;BME280;8154;50.830;12.082;2023-02-16T09:30:57;100258.03;;;24.58;31.84
16100;BME280;8154;50.830;12.082;2023-02-16T09:33:24;100258.69;;;24.60;31.81
16100;BME280;8154;50.830;12.082;2023-02-16T09:35:52;100258.34;;;24.63;31.79
16100;BME280;8154;50.830;12.082;2023-02-16T09:38:20;100261.63;;;24.65;31.98
16100;BME280;8154;50.830;12.082;2023-02-16T09:40:55;100256.78;;;24.68;31.44
16100;BME280;8154;50.830;12.082;2023-02-16T09:43:38;100254.94;;;24.69;31.92
16100;BME280;8154;50.830;12.082;2023-02-16T09:46:14;100241.09;;;24.65;31.67
16100;BME280;8154;50.830;12.082;2023-02-16T09:48:46;100249.41;;;24.70;31.60
16100;BME280;8154;50.830;12.082;2023-02-16T09:51:28;100248.41;;;24.71;31.98
16100;BME280;8154;50.830;12.082;2023-02-16T11:57:06;100161.81;;;24.87;31.82
16100;BME280;8154;50.830;12.082;2023-02-16T11:59:36;100173.97;;;24.89;31.51
16100;BME280;8154;50.830;12.082;2023-02-16T12:05:02;100167.63;;;24.90;31.71
16100;BME280;8154;50.830;12.082;2023-02-16T12:10:38;100156.94;;;24.90;31.70
16100;BME280;8154;50.830;12.082;2023-02-16T12:22:03;100140.88;;;24.90;31.55
16100;BME280;8154;50.830;12.082;2023-02-16T12:24:25;100143.19;;;24.93;31.35
16100;BME280;8154;50.830;12.082;2023-02-16T12:26:59;100143.19;;;24.93;31.66
16100;BME280;8154;50.830;12.082;2023-02-16T12:34:36;100128.78;;;24.94;31.40
16100;BME280;8154;50.830;12.082;2023-02-16T12:37:20;100129.81;;;24.93;31.73
16100;BME280;8154;50.830;12.082;2023-02-16T12:46:02;100130.47;;;24.95;31.33
16100;BME280;8154;50.830;12.082;2023-02-16T12:48:38;100127.78;;;24.95;31.57
16100;BME280;8154;50.830;12.082;2023-02-16T12:51:20;100121.59;;;24.95;31.46
16100;BME280;8154;50.830;12.082;2023-02-16T12:53:55;100127.59;;;24.97;31.64
16100;BME280;8154;50.830;12.082;2023-02-16T12:56:30;100123.25;;;24.96;31.31
16100;BME280;8154;50.830;12.082;2023-02-16T12:59:26;100109.06;;;24.95;31.64
16100;BME280;8154;50.830;12.082;2023-02-16T13:01:57;100118.72;;;24.96;31.49
16100;BME280;8154;50.830;12.082;2023-02-16T13:07:09;100121.88;;;25.00;31.44
16100;BME280;8154;50.830;12.082;2023-02-16T13:09:50;100116.69;;;24.98;31.58
16100;BME280;8154;50.830;12.082;2023-02-16T13:12:54;100118.34;;;24.99;31.64
16100;BME280;8154;50.830;12.082;2023-02-16T13:15:36;100111.53;;;24.97;31.51
16100;BME280;8154;50.830;12.082;2023-02-16T13:18:17;100116.69;;;24.98;31.64
16100;BME280;8154;50.830;12.082;2023-02-16T13:20:52;100114.03;;;24.98;31.75
16100;BME280;8154;50.830;12.082;2023-02-16T13:24:22;100109.50;;;24.99;31.36
16100;BME280;8154;50.830;12.082;2023-02-16T13:26:51;100110.31;;;24.99;31.46
16100;BME280;8154;50.830;12.082;2023-02-16T13:44:06;100098.59;;;25.00;31.59
16100;BME280;8154;50.830;12.082;2023-02-16T13:46:42;100095.75;;;25.02;31.26
16100;BME280;8154;50.830;12.082;2023-02-16T13:49:33;100101.91;;;25.02;31.23
16100;BME280;8154;50.830;12.082;2023-02-16T13:52:05;100091.22;;;25.02;31.48
16100;BME280;8154;50.830;12.082;2023-02-16T13:54:36;100088.53;;;25.02;31.37
16100;BME280;8154;50.830;12.082;2023-02-16T13:57:13;100090.19;;;25.03;31.31
16100;BME280;8154;50.830;12.082;2023-02-16T14:02:11;100091.41;;;25.01;31.52
16100;BME280;8154;50.830;12.082;2023-02-16T14:30:32;100105.25;;;25.04;31.34
16100;BME280;8154;50.830;12.082;2023-02-16T14:36:05;100110.22;;;25.07;31.30
16100;BME280;8154;50.830;12.082;2023-02-16T14:38:36;100109.38;;;25.07;31.14
16100;BME280;8154;50.830;12.082;2023-02-16T14:57:15;100121.09;;;25.06;31.10
16100;BME280;8154;50.830;12.082;2023-02-16T16:01:24;100094.75;;;25.03;31.22
16100;BME280;8154;50.830;12.082;2023-02-16T16:03:51;100086.72;;;25.03;31.44
16100;BME280;8154;50.830;12.082;2023-02-16T16:06:18;100079.31;;;25.05;31.43
16100;BME280;8154;50.830;12.082;2023-02-16T16:08:46;100077.66;;;25.04;31.38
16100;BME280;8154;50.830;12.082;2023-02-16T16:11:13;100069.63;;;25.04;31.19
16100;BME280;8154;50.830;12.082;2023-02-16T16:13:40;100067.78;;;25.04;31.28
16100;BME280;8154;50.830;12.082;2023-02-16T16:16:08;100063.06;;;25.06;31.20
16100;BME280;8154;50.830;12.082;2023-02-16T16:18:43;100056.91;;;25.06;30.97
16100;BME280;8154;50.830;12.082;2023-02-16T16:21:20;100064.94;;;25.06;31.32
16100;BME280;8154;50.830;12.082;2023-02-16T16:24:07;100063.25;;;25.05;31.01
16100;BME280;8154;50.830;12.082;2023-02-16T16:26:55;100065.94;;;25.05;31.29
16100;BME280;8154;50.830;12.082;2023-02-16T16:32:03;100064.09;;;25.05;31.31
16100;BME280;8154;50.830;12.082;2023-02-16T16:34:38;100067.78;;;25.04;30.90
16100;BME280;8154;50.830;12.082;2023-02-16T16:37:16;100063.06;;;25.06;31.24
16100;BME280;8154;50.830;12.082;2023-02-16T16:40:00;100068.41;;;25.06;30.84
16100;BME280;8154;50.830;12.082;2023-02-16T16:42:27;100085.31;;;25.07;30.87
16100;BME280;8154;50.830;12.082;2023-02-16T16:45:02;100079.94;;;25.07;31.05
16100;BME280;8154;50.830;12.082;2023-02-16T16:47:36;100080.16;;;25.05;30.88
16100;BME280;8154;50.830;12.082;2023-02-16T16:52:36;100090.84;;;25.05;31.03
16100;BME280;8154;50.830;12.082;2023-02-16T16:55:25;100086.34;;;25.06;31.13
16100;BME280;8154;50.830;12.082;2023-02-16T16:57:58;100093.31;;;25.07;30.98
16100;BME280;8154;50.830;12.082;2023-02-16T18:02:00;100144.97;;;25.07;31.09
16100;BME280;8154;50.830;12.082;2023-02-16T18:04:28;100137.16;;;25.06;30.95
16100;BME280;8154;50.830;12.082;2023-02-16T18:06:54;100141.47;;;25.07;31.08
16100;BME280;8154;50.830;12.082;2023-02-16T18:09:21;100141.47;;;25.07;31.00
16100;BME280;8154;50.830;12.082;2023-02-16T18:11:50;100142.31;;;25.07;30.98
16100;BME280;8154;50.830;12.082;2023-02-16T18:14:18;100143.13;;;25.08;30.80
16100;BME280;8154;50.830;12.082;2023-02-16T18:16:50;100143.97;;;25.08;31.11
16100;BME280;8154;50.830;12.082;2023-02-16T18:19:16;100141.94;;;25.10;30.86
16100;BME280;8154;50.830;12.082;2023-02-16T18:21:45;100142.94;;;25.09;30.86
16100;BME280;8154;50.830;12.082;2023-02-16T18:24:12;100152.63;;;25.10;30.69
16100;BME280;8154;50.830;12.082;2023-02-16T18:26:38;100144.78;;;25.09;30.86
16100;BME280;8154;50.830;12.082;2023-02-16T18:29:05;100148.28;;;25.09;31.12
16100;BME280;8154;50.830;12.082;2023-02-16T18:31:33;100150.94;;;25.09;30.68
16100;BME280;8154;50.830;12.082;2023-02-16T18:33:59;100141.28;;;25.08;30.82
16100;BME280;8154;50.830;12.082;2023-02-16T18:36:25;100140.25;;;25.09;30.74
16100;BME280;8154;50.830;12.082;2023-02-16T18:38:52;100142.72;;;25.11;30.82
16100;BME280;8154;50.830;12.082;2023-02-16T18:41:18;100130.00;;;25.13;30.69
16100;BME280;8154;50.830;12.082;2023-02-16T18:43:45;100129.16;;;25.12;30.83
16100;BME280;8154;50.830;12.082;2023-02-16T18:46:12;100128.38;;;25.12;30.98
16100;BME280;8154;50.830;12.082;2023-02-16T18:48:40;100116.75;;;25.05;30.98
16100;BME280;8154;50.830;12.082;2023-02-16T18:51:09;100129.38;;;25.11;30.92
16100;BME280;8154;50.830;12.082;2023-02-16T18:53:37;100131.22;;;25.10;30.74
16100;BME280;8154;50.830;12.082;2023-02-16T18:56:07;100132.88;;;25.11;30.91
16100;BME280;8154;50.830;12.082;2023-02-16T18:58:34;100133.72;;;25.12;30.84
16100;BME280;8154;50.830;12.082;2023-02-16T22:04:00;99993.41;;;25.14;30.57
16100;BME280;8154;50.830;12.082;2023-02-16T22:06:30;99997.75;;;25.15;30.67
16100;BME280;8154;50.830;12.082;2023-02-16T22:08:59;99989.72;;;25.15;30.68
16100;BME280;8154;50.830;12.082;2023-02-16T22:11:27;99991.38;;;25.16;30.76
16100;BME280;8154;50.830;12.082;2023-02-16T22:13:54;99989.72;;;25.15;30.74
16100;BME280;8154;50.830;12.082;2023-02-16T22:16:21;99986.00;;;25.16;30.72
16100;BME280;8154;50.830;12.082;2023-02-16T22:18:48;99976.34;;;25.15;30.86
16100;BME280;8154;50.830;12.082;2023-02-16T22:21:15;99971.00;;;25.15;30.75
16100;BME280;8154;50.830;12.082;2023-02-16T22:23:41;99974.47;;;25.16;30.50
16100;BME280;8154;50.830;12.082;2023-02-16T22:26:15;99969.31;;;25.14;30.69
16100;BME280;8154;50.830;12.082;2023-02-16T22:28:44;99956.34;;;25.11;30.62
16100;BME280;8154;50.830;12.082;2023-02-16T22:31:10;99966.63;;;25.14;30.59
16100;BME280;8154;50.830;12.082;2023-02-16T22:33:36;99971.19;;;25.14;30.79
16100;BME280;8154;50.830;12.082;2023-02-16T22:36:07;99968.50;;;25.14;30.67
16100;BME280;8154;50.830;12.082;2023-02-16T22:38:40;99959.66;;;25.13;30.55
16100;BME280;8154;50.830;12.082;2023-02-16T22:41:07;99955.94;;;25.14;30.83
16100;BME280;8154;50.830;12.082;2023-02-16T22:43:35;99959.66;;;25.13;30.59
16100;BME280;8154;50.830;12.082;2023-02-16T22:46:07;99957.97;;;25.12;30.56
16100;BME280;8154;50.830;12.082;2023-02-16T22:48:34;99952.47;;;25.14;30.78
16100;BME280;8154;50.830;12.082;2023-02-16T22:51:03;99954.31;;;25.13;30.54
16100;BME280;8154;50.830;12.082;2023-02-16T22:53:30;99947.28;;;25.12;30.87
16100;BME280;8154;50.830;12.082;2023-02-16T22:55:56;99954.31;;;25.13;30.80
16100;BME280;8154;50.830;12.082;2023-02-16T22:58:24;99954.69;;;25.10;30.83
16100;BME280;8154;50.830;12.082;2023-02-16T23:00:51;99952.81;;;25.11;30.61
